sensor_id;sensor_type;location;lat;lon;timestamp;pressure;altitude;pressure_sealevel;temperature;humidity
78892;BME280;68368;51.728;5.248;2023-09-12T00:00:39;101280.13;;;18.58;92.98
78892;BME280;68368;51.728;5.248;2023-09-12T00:02:41;101279.28;;;18.57;92.83
78892;BME280;68368;51.728;5.248;2023-09-12T00:04:43;101281.37;;;18.54;92.54
78892;BME280;68368;51.728;5.248;2023-09-12T00:06:45;101281.30;;;18.51;92.62
78892;BME280;68368;51.728;5.248;2023-09-12T00:08:49;101282.66;;;18.48;92.67
78892;BME280;68368;51.728;5.248;2023-09-12T00:11:03;101284.89;;;18.46;92.88
78892;BME280;68368;51.728;5.248;2023-09-12T00:13:06;101282.20;;;18.41;92.71
78892;BME280;68368;51.728;5.248;2023-09-12T00:15:10;101285.21;;;18.37;92.96
78892;BME280;68368;51.728;5.248;2023-09-12T00:17:12;101289.67;;;18.33;93.17
78892;BME280;68368;51.728;5.248;2023-09-12T00:19:16;101291.63;;;18.28;93.24
78892;BME280;68368;51.728;5.248;2023-09-12T00:21:17;101291.05;;;18.24;93.55
78892;BME280;68368;51.728;5.248;2023-09-12T00:23:24;101289.74;;;18.21;93.82
78892;BME280;68368;51.728;5.248;2023-09-12T00:25:26;101283.91;;;18.18;94.00
78892;BME280;68368;51.728;5.248;2023-09-12T00:27:31;101287.77;;;18.15;94.24
78892;BME280;68368;51.728;5.248;2023-09-12T00:29:33;101285.68;;;18.13;94.35
78892;BME280;68368;51.728;5.248;2023-09-12T00:31:35;101287.34;;;18.12;94.42
78892;BME280;68368;51.728;5.248;2023-09-12T00:33:37;101287.20;;;18.11;94.24
78892;BME280;68368;51.728;5.248;2023-09-12T00:35:39;101284.77;;;18.08;94.48
78892;BME280;68368;51.728;5.248;2023-09-12T00:37:41;101281.83;;;18.05;94.38
78892;BME280;68368;51.728;5.248;2023-09-12T00:39:43;101282.10;;;18.02;94.36
78892;BME280;68368;51.728;5.248;2023-09-12T00:41:45;101285.65;;;17.98;94.53
78892;BME280;68368;51.728;5.248;2023-09-12T00:43:47;101285.91;;;17.96;94.41
78892;BME280;68368;51.728;5.248;2023-09-12T00:45:49;101288.73;;;17.92;94.58
78892;BME280;68368;51.728;5.248;2023-09-12T00:47:54;101289.71;;;17.89;94.48
78892;BME280;68368;51.728;5.248;2023-09-12T00:49:57;101288.91;;;17.86;94.67
78892;BME280;68368;51.728;5.248;2023-09-12T00:52:01;101293.27;;;17.85;94.92
78892;BME280;68368;51.728;5.248;2023-09-12T00:54:04;101294.58;;;17.84;94.99
78892;BME280;68368;51.728;5.248;2023-09-12T00:56:07;101292.46;;;17.82;94.98
78892;BME280;68368;51.728;5.248;2023-09-12T00:58:08;101293.95;;;17.80;94.99
78892;BME280;68368;51.728;5.248;2023-09-12T01:00:13;101294.59;;;17.77;94.77
78892;BME280;68368;51.728;5.248;2023-09-12T01:02:16;101294.86;;;17.74;95.11
78892;BME280;68368;51.728;5.248;2023-09-12T01:04:19;101291.16;;;17.72;95.19
78892;BME280;68368;51.728;5.248;2023-09-12T01:06:23;101293.19;;;17.70;95.01
78892;BME280;68368;51.728;5.248;2023-09-12T01:08:28;101291.34;;;17.66;94.93
78892;BME280;68368;51.728;5.248;2023-09-12T01:10:32;101290.31;;;17.64;95.65
78892;BME280;68368;51.728;5.248;2023-09-12T01:12:34;101291.11;;;17.62;95.71
78892;BME280;68368;51.728;5.248;2023-09-12T01:14:37;101289.21;;;17.60;96.23
78892;BME280;68368;51.728;5.248;2023-09-12T01:16:39;101287.98;;;17.59;96.32
78892;BME280;68368;51.728;5.248;2023-09-12T01:18:41;101280.86;;;17.58;96.03
78892;BME280;68368;51.728;5.248;2023-09-12T01:21:09;101272.67;;;17.55;96.19
78892;BME280;68368;51.728;5.248;2023-09-12T01:23:32;101274.89;;;17.53;96.15
78892;BME280;68368;51.728;5.248;2023-09-12T01:25:56;101273.89;;;17.51;96.15
78892;BME280;68368;51.728;5.248;2023-09-12T01:28:07;101281.16;;;17.48;95.99
78892;BME280;68368;51.728;5.248;2023-09-12T01:30:15;101274.30;;;17.43;96.05
78892;BME280;68368;51.728;5.248;2023-09-12T01:32:21;101280.89;;;17.39;96.01
78892;BME280;68368;51.728;5.248;2023-09-12T01:34:25;101284.94;;;17.36;96.01
78892;BME280;68368;51.728;5.248;2023-09-12T01:36:27;101282.52;;;17.33;96.04
78892;BME280;68368;51.728;5.248;2023-09-12T01:38:31;101280.08;;;17.31;96.22
78892;BME280;68368;51.728;5.248;2023-09-12T01:40:39;101277.92;;;17.31;96.88
78892;BME280;68368;51.728;5.248;2023-09-12T01:42:45;101275.98;;;17.30;96.76
78892;BME280;68368;51.728;5.248;2023-09-12T01:44:49;101278.33;;;17.29;96.49
78892;BME280;68368;51.728;5.248;2023-09-12T01:46:51;101281.06;;;17.28;96.68
78892;BME280;68368;51.728;5.248;2023-09-12T01:48:56;101281.29;;;17.26;96.70
78892;BME280;68368;51.728;5.248;2023-09-12T01:51:02;101276.34;;;17.24;96.95
78892;BME280;68368;51.728;5.248;2023-09-12T01:53:12;101281.23;;;17.23;96.63
78892;BME280;68368;51.728;5.248;2023-09-12T01:55:17;101276.27;;;17.21;96.66
78892;BME280;68368;51.728;5.248;2023-09-12T01:57:20;101279.02;;;17.18;97.07
78892;BME280;68368;51.728;5.248;2023-09-12T01:59:22;101275.32;;;17.16;96.61
78892;BME280;68368;51.728;5.248;2023-09-12T02:01:24;101271.84;;;17.13;96.95
78892;BME280;68368;51.728;5.248;2023-09-12T02:03:26;101271.52;;;17.12;97.29
78892;BME280;68368;51.728;5.248;2023-09-12T02:05:30;101270.64;;;17.10;97.41
78892;BME280;68368;51.728;5.248;2023-09-12T02:07:35;101272.30;;;17.09;97.47
78892;BME280;68368;51.728;5.248;2023-09-12T02:09:38;101276.65;;;17.08;97.26
78892;BME280;68368;51.728;5.248;2023-09-12T02:11:40;101276.55;;;17.05;96.89
78892;BME280;68368;51.728;5.248;2023-09-12T02:13:43;101280.79;;;17.02;96.84
78892;BME280;68368;51.728;5.248;2023-09-12T02:15:45;101276.73;;;16.99;97.06
78892;BME280;68368;51.728;5.248;2023-09-12T02:17:47;101272.10;;;16.97;97.40
78892;BME280;68368;51.728;5.248;2023-09-12T02:19:50;101273.79;;;16.96;97.35
78892;BME280;68368;51.728;5.248;2023-09-12T02:21:52;101277.77;;;16.94;97.13
78892;BME280;68368;51.728;5.248;2023-09-12T02:23:54;101269.29;;;16.90;97.04
78892;BME280;68368;51.728;5.248;2023-09-12T02:25:58;101268.10;;;16.88;97.21
78892;BME280;68368;51.728;5.248;2023-09-12T02:28:01;101274.96;;;16.86;97.51
78892;BME280;68368;51.728;5.248;2023-09-12T02:30:07;101267.71;;;16.83;97.28
78892;BME280;68368;51.728;5.248;2023-09-12T02:32:10;101269.45;;;16.79;97.57
78892;BME280;68368;51.728;5.248;2023-09-12T02:34:12;101270.03;;;16.77;97.78
78892;BME280;68368;51.728;5.248;2023-09-12T02:36:14;101269.69;;;16.75;97.95
78892;BME280;68368;51.728;5.248;2023-09-12T02:38:16;101267.90;;;16.75;98.68
78892;BME280;68368;51.728;5.248;2023-09-12T02:40:18;101268.26;;;16.77;98.70
78892;BME280;68368;51.728;5.248;2023-09-12T02:42:21;101271.12;;;16.77;98.42
78892;BME280;68368;51.728;5.248;2023-09-12T02:44:23;101273.28;;;16.75;98.32
78892;BME280;68368;51.728;5.248;2023-09-12T02:46:25;101271.72;;;16.73;98.02
78892;BME280;68368;51.728;5.248;2023-09-12T02:48:28;101278.20;;;16.72;98.60
78892;BME280;68368;51.728;5.248;2023-09-12T02:50:30;101278.55;;;16.72;98.70
78892;BME280;68368;51.728;5.248;2023-09-12T02:52:32;101278.77;;;16.70;98.60
78892;BME280;68368;51.728;5.248;2023-09-12T02:54:35;101280.96;;;16.70;98.78
78892;BME280;68368;51.728;5.248;2023-09-12T02:56:44;101282.22;;;16.69;99.03
78892;BME280;68368;51.728;5.248;2023-09-12T02:58:51;101280.82;;;16.68;99.11
78892;BME280;68368;51.728;5.248;2023-09-12T03:00:52;101270.10;;;16.67;99.06
78892;BME280;68368;51.728;5.248;2023-09-12T03:02:54;101270.10;;;16.67;99.49
78892;BME280;68368;51.728;5.248;2023-09-12T03:04:56;101269.00;;;16.68;99.81
78892;BME280;68368;51.728;5.248;2023-09-12T03:06:58;101266.66;;;16.68;99.47
78892;BME280;68368;51.728;5.248;2023-09-12T03:09:00;101268.98;;;16.68;99.71
78892;BME280;68368;51.728;5.248;2023-09-12T03:11:03;101264.46;;;16.70;99.62
78892;BME280;68368;51.728;5.248;2023-09-12T03:13:05;101256.70;;;16.71;99.63
78892;BME280;68368;51.728;5.248;2023-09-12T03:15:10;101253.56;;;16.75;99.65
78892;BME280;68368;51.728;5.248;2023-09-12T03:17:13;101251.36;;;16.78;99.64
78892;BME280;68368;51.728;5.248;2023-09-12T03:19:16;101250.40;;;16.80;99.67
78892;BME280;68368;51.728;5.248;2023-09-12T03:21:18;101254.62;;;16.82;99.67
78892;BME280;68368;51.728;5.248;2023-09-12T03:23:21;101251.27;;;16.81;99.56
78892;BME280;68368;51.728;5.248;2023-09-12T03:25:24;101261.52;;;16.86;99.44
78892;BME280;68368;51.728;5.248;2023-09-12T03:27:29;101265.44;;;16.87;99.64
78892;BME280;68368;51.728;5.248;2023-09-12T03:29:31;101264.20;;;16.86;99.32
78892;BME280;68368;51.728;5.248;2023-09-12T03:31:34;101269.23;;;16.86;98.98
78892;BME280;68368;51.728;5.248;2023-09-12T03:33:37;101269.85;;;16.83;98.98
78892;BME280;68368;51.728;5.248;2023-09-12T03:35:42;101270.79;;;16.81;98.82
78892;BME280;68368;51.728;5.248;2023-09-12T03:37:49;101265.65;;;16.80;98.89
78892;BME280;68368;51.728;5.248;2023-09-12T03:39:55;101266.45;;;16.77;98.92
78892;BME280;68368;51.728;5.248;2023-09-12T03:41:57;101264.35;;;16.74;98.76
78892;BME280;68368;51.728;5.248;2023-09-12T03:43:59;101264.98;;;16.70;98.87
78892;BME280;68368;51.728;5.248;2023-09-12T03:46:01;101259.17;;;16.67;99.19
78892;BME280;68368;51.728;5.248;2023-09-12T03:48:05;101260.67;;;16.65;99.17
78892;BME280;68368;51.728;5.248;2023-09-12T03:50:08;101261.45;;;16.62;99.40
78892;BME280;68368;51.728;5.248;2023-09-12T03:52:10;101258.09;;;16.61;99.64
78892;BME280;68368;51.728;5.248;2023-09-12T03:54:13;101258.12;;;16.60;99.83
78892;BME280;68368;51.728;5.248;2023-09-12T03:56:14;101259.35;;;16.61;99.94
78892;BME280;68368;51.728;5.248;2023-09-12T03:58:17;101263.86;;;16.60;99.91
78892;BME280;68368;51.728;5.248;2023-09-12T04:00:19;101268.88;;;16.60;99.97
78892;BME280;68368;51.728;5.248;2023-09-12T04:02:23;101263.67;;;16.60;100.00
78892;BME280;68368;51.728;5.248;2023-09-12T04:04:24;101261.64;;;16.62;100.00
78892;BME280;68368;51.728;5.248;2023-09-12T04:06:26;101262.15;;;16.63;100.00
78892;BME280;68368;51.728;5.248;2023-09-12T04:08:31;101255.38;;;16.62;100.00
78892;BME280;68368;51.728;5.248;2023-09-12T04:10:33;101249.98;;;16.63;100.00
78892;BME280;68368;51.728;5.248;2023-09-12T04:12:35;101247.80;;;16.63;100.00
78892;BME280;68368;51.728;5.248;2023-09-12T04:14:37;101247.95;;;16.64;100.00
78892;BME280;68368;51.728;5.248;2023-09-12T04:16:39;101247.60;;;16.64;100.00
78892;BME280;68368;51.728;5.248;2023-09-12T04:18:41;101245.48;;;16.63;100.00
78892;BME280;68368;51.728;5.248;2023-09-12T04:20:43;101250.36;;;16.62;99.99
78892;BME280;68368;51.728;5.248;2023-09-12T04:22:45;101244.28;;;16.61;99.89
78892;BME280;68368;51.728;5.248;2023-09-12T04:24:47;101249.17;;;16.59;99.97
78892;BME280;68368;51.728;5.248;2023-09-12T04:26:52;101255.48;;;16.58;99.80
78892;BME280;68368;51.728;5.248;2023-09-12T04:28:53;101256.63;;;16.56;99.93
78892;BME280;68368;51.728;5.248;2023-09-12T04:31:02;101258.64;;;16.54;99.93
78892;BME280;68368;51.728;5.248;2023-09-12T04:33:06;101257.64;;;16.52;99.99
78892;BME280;68368;51.728;5.248;2023-09-12T04:35:09;101255.17;;;16.50;99.98
78892;BME280;68368;51.728;5.248;2023-09-12T04:37:11;101255.02;;;16.50;100.00
78892;BME280;68368;51.728;5.248;2023-09-12T04:39:13;101251.92;;;16.50;100.00
78892;BME280;68368;51.728;5.248;2023-09-12T04:41:17;101246.98;;;16.54;100.00
78892;BME280;68368;51.728;5.248;2023-09-12T04:43:19;101247.07;;;16.58;100.00
78892;BME280;68368;51.728;5.248;2023-09-12T04:45:21;101247.90;;;16.60;100.00
78892;BME280;68368;51.728;5.248;2023-09-12T04:47:23;101249.30;;;16.61;100.00
78892;BME280;68368;51.728;5.248;2023-09-12T04:49:28;101248.33;;;16.64;100.00
78892;BME280;68368;51.728;5.248;2023-09-12T04:51:33;101250.56;;;16.67;100.00
78892;BME280;68368;51.728;5.248;2023-09-12T04:53:35;101252.48;;;16.69;100.00
78892;BME280;68368;51.728;5.248;2023-09-12T04:55:37;101254.80;;;16.69;100.00
78892;BME280;68368;51.728;5.248;2023-09-12T04:57:39;101256.80;;;16.68;100.00
78892;BME280;68368;51.728;5.248;2023-09-12T04:59:44;101257.85;;;16.69;100.00
78892;BME280;68368;51.728;5.248;2023-09-12T05:01:47;101256.56;;;16.70;100.00
78892;BME280;68368;51.728;5.248;2023-09-12T05:03:49;101256.67;;;16.72;100.00
78892;BME280;68368;51.728;5.248;2023-09-12T05:05:53;101249.64;;;16.74;100.00
78892;BME280;68368;51.728;5.248;2023-09-12T05:07:58;101252.66;;;16.76;100.00
78892;BME280;68368;51.728;5.248;2023-09-12T05:10:06;101251.52;;;16.79;100.00
78892;BME280;68368;51.728;5.248;2023-09-12T05:12:09;101255.98;;;16.80;99.95
78892;BME280;68368;51.728;5.248;2023-09-12T05:14:12;101255.94;;;16.81;100.00
78892;BME280;68368;51.728;5.248;2023-09-12T05:16:14;101257.15;;;16.82;99.99
78892;BME280;68368;51.728;5.248;2023-09-12T05:18:17;101261.80;;;16.82;99.81
78892;BME280;68368;51.728;5.248;2023-09-12T05:20:22;101263.09;;;16.82;99.90
78892;BME280;68368;51.728;5.248;2023-09-12T05:22:25;101260.06;;;16.81;99.97
78892;BME280;68368;51.728;5.248;2023-09-12T05:24:29;101254.62;;;16.83;100.00
78892;BME280;68368;51.728;5.248;2023-09-12T05:26:32;101252.06;;;16.84;100.00
78892;BME280;68368;51.728;5.248;2023-09-12T05:28:34;101258.23;;;16.88;100.00
78892;BME280;68368;51.728;5.248;2023-09-12T05:30:37;101253.84;;;16.91;100.00
78892;BME280;68368;51.728;5.248;2023-09-12T05:32:40;101251.77;;;16.94;100.00
78892;BME280;68368;51.728;5.248;2023-09-12T05:34:42;101246.27;;;16.98;100.00
78892;BME280;68368;51.728;5.248;2023-09-12T05:36:44;101249.36;;;17.03;100.00
78892;BME280;68368;51.728;5.248;2023-09-12T05:38:47;101249.59;;;17.07;100.00
78892;BME280;68368;51.728;5.248;2023-09-12T05:40:49;101249.45;;;17.12;99.99
78892;BME280;68368;51.728;5.248;2023-09-12T05:42:50;101256.68;;;17.16;99.72
78892;BME280;68368;51.728;5.248;2023-09-12T05:44:58;101262.33;;;17.19;99.58
78892;BME280;68368;51.728;5.248;2023-09-12T05:47:01;101262.02;;;17.23;99.64
78892;BME280;68368;51.728;5.248;2023-09-12T05:49:03;101256.42;;;17.30;99.75
78892;BME280;68368;51.728;5.248;2023-09-12T05:51:05;101257.46;;;17.36;99.35
78892;BME280;68368;51.728;5.248;2023-09-12T05:53:10;101261.98;;;17.41;99.16
78892;BME280;68368;51.728;5.248;2023-09-12T05:55:12;101270.42;;;17.47;99.04
78892;BME280;68368;51.728;5.248;2023-09-12T05:57:14;101271.59;;;17.50;99.08
78892;BME280;68368;51.728;5.248;2023-09-12T05:59:16;101273.78;;;17.54;99.28
78892;BME280;68368;51.728;5.248;2023-09-12T06:01:19;101269.30;;;17.59;99.53
78892;BME280;68368;51.728;5.248;2023-09-12T06:03:21;101265.54;;;17.65;99.50
78892;BME280;68368;51.728;5.248;2023-09-12T06:05:23;101266.14;;;17.68;99.25
78892;BME280;68368;51.728;5.248;2023-09-12T06:07:25;101265.66;;;17.72;99.35
78892;BME280;68368;51.728;5.248;2023-09-12T06:09:28;101268.94;;;17.76;99.24
78892;BME280;68368;51.728;5.248;2023-09-12T06:11:33;101271.02;;;17.79;99.03
78892;BME280;68368;51.728;5.248;2023-09-12T06:13:37;101273.27;;;17.82;98.91
78892;BME280;68368;51.728;5.248;2023-09-12T06:15:40;101271.55;;;17.85;98.92
78892;BME280;68368;51.728;5.248;2023-09-12T06:17:43;101276.24;;;17.89;98.98
78892;BME280;68368;51.728;5.248;2023-09-12T06:19:46;101279.80;;;17.96;98.85
78892;BME280;68368;51.728;5.248;2023-09-12T06:21:50;101279.55;;;18.04;98.89
78892;BME280;68368;51.728;5.248;2023-09-12T06:24:11;101282.20;;;18.10;98.54
78892;BME280;68368;51.728;5.248;2023-09-12T06:26:14;101283.64;;;18.16;98.09
78892;BME280;68368;51.728;5.248;2023-09-12T06:28:25;101288.60;;;18.17;98.08
78892;BME280;68368;51.728;5.248;2023-09-12T06:30:29;101292.48;;;18.19;97.88
78892;BME280;68368;51.728;5.248;2023-09-12T06:32:34;101294.02;;;18.22;97.79
78892;BME280;68368;51.728;5.248;2023-09-12T06:34:37;101291.41;;;18.25;97.73
78892;BME280;68368;51.728;5.248;2023-09-12T06:36:39;101289.85;;;18.28;97.85
78892;BME280;68368;51.728;5.248;2023-09-12T06:38:41;101288.81;;;18.32;97.71
78892;BME280;68368;51.728;5.248;2023-09-12T06:40:44;101291.19;;;18.36;97.58
78892;BME280;68368;51.728;5.248;2023-09-12T06:42:47;101285.15;;;18.39;97.28
78892;BME280;68368;51.728;5.248;2023-09-12T06:44:49;101288.52;;;18.40;97.10
78892;BME280;68368;51.728;5.248;2023-09-12T06:46:51;101288.77;;;18.43;97.32
78892;BME280;68368;51.728;5.248;2023-09-12T06:48:53;101289.14;;;18.48;97.22
78892;BME280;68368;51.728;5.248;2023-09-12T06:50:55;101285.04;;;18.52;96.95
78892;BME280;68368;51.728;5.248;2023-09-12T06:52:58;101284.35;;;18.56;96.67
78892;BME280;68368;51.728;5.248;2023-09-12T06:55:01;101281.89;;;18.60;96.57
78892;BME280;68368;51.728;5.248;2023-09-12T06:57:04;101279.55;;;18.65;96.65
78892;BME280;68368;51.728;5.248;2023-09-12T06:59:06;101272.66;;;18.71;96.45
78892;BME280;68368;51.728;5.248;2023-09-12T07:01:08;101272.08;;;18.78;96.25
78892;BME280;68368;51.728;5.248;2023-09-12T07:03:11;101275.73;;;18.86;96.15
78892;BME280;68368;51.728;5.248;2023-09-12T07:05:13;101284.12;;;18.92;95.75
78892;BME280;68368;51.728;5.248;2023-09-12T07:07:15;101286.31;;;18.96;95.48
78892;BME280;68368;51.728;5.248;2023-09-12T07:09:17;101290.67;;;19.00;95.36
78892;BME280;68368;51.728;5.248;2023-09-12T07:11:19;101294.17;;;19.03;95.22
78892;BME280;68368;51.728;5.248;2023-09-12T07:13:21;101293.48;;;19.07;95.11
78892;BME280;68368;51.728;5.248;2023-09-12T07:15:23;101293.06;;;19.13;94.86
78892;BME280;68368;51.728;5.248;2023-09-12T07:17:28;101289.04;;;19.19;94.40
78892;BME280;68368;51.728;5.248;2023-09-12T07:19:30;101289.69;;;19.26;94.10
78892;BME280;68368;51.728;5.248;2023-09-12T07:21:33;101289.56;;;19.34;94.07
78892;BME280;68368;51.728;5.248;2023-09-12T07:23:35;101292.41;;;19.43;93.54
78892;BME280;68368;51.728;5.248;2023-09-12T07:25:39;101292.42;;;19.52;93.24
78892;BME280;68368;51.728;5.248;2023-09-12T07:27:42;101290.23;;;19.62;93.03
78892;BME280;68368;51.728;5.248;2023-09-12T07:29:45;101287.20;;;19.75;92.76
78892;BME280;68368;51.728;5.248;2023-09-12T07:31:47;101286.87;;;19.92;92.38
78892;BME280;68368;51.728;5.248;2023-09-12T07:33:49;101283.66;;;20.25;91.68
78892;BME280;68368;51.728;5.248;2023-09-12T07:35:53;101282.08;;;20.69;91.04
78892;BME280;68368;51.728;5.248;2023-09-12T07:37:55;101285.50;;;21.13;89.94
78892;BME280;68368;51.728;5.248;2023-09-12T07:39:57;101286.21;;;21.84;88.39
78892;BME280;68368;51.728;5.248;2023-09-12T07:42:02;101289.13;;;22.55;87.11
78892;BME280;68368;51.728;5.248;2023-09-12T07:44:05;101288.95;;;23.19;85.49
78892;BME280;68368;51.728;5.248;2023-09-12T07:46:07;101296.70;;;23.80;84.16
78892;BME280;68368;51.728;5.248;2023-09-12T07:48:10;101296.45;;;24.19;82.24
78892;BME280;68368;51.728;5.248;2023-09-12T07:50:12;101302.52;;;24.26;81.56
78892;BME280;68368;51.728;5.248;2023-09-12T07:52:13;101302.55;;;24.47;80.29
78892;BME280;68368;51.728;5.248;2023-09-12T07:54:15;101302.86;;;24.63;79.54
78892;BME280;68368;51.728;5.248;2023-09-12T07:56:17;101300.95;;;24.91;78.70
78892;BME280;68368;51.728;5.248;2023-09-12T07:58:20;101302.44;;;25.39;76.89
78892;BME280;68368;51.728;5.248;2023-09-12T08:00:23;101305.73;;;25.83;75.51
78892;BME280;68368;51.728;5.248;2023-09-12T08:02:25;101306.50;;;26.16;74.25
78892;BME280;68368;51.728;5.248;2023-09-12T08:04:27;101308.21;;;26.46;72.71
78892;BME280;68368;51.728;5.248;2023-09-12T08:06:29;101306.94;;;26.70;71.08
78892;BME280;68368;51.728;5.248;2023-09-12T08:08:31;101302.30;;;26.89;69.41
78892;BME280;68368;51.728;5.248;2023-09-12T08:10:33;101305.49;;;27.08;69.19
78892;BME280;68368;51.728;5.248;2023-09-12T08:12:37;101307.30;;;27.29;67.94
78892;BME280;68368;51.728;5.248;2023-09-12T08:14:39;101297.67;;;27.43;67.11
78892;BME280;68368;51.728;5.248;2023-09-12T08:16:40;101313.15;;;27.73;66.22
78892;BME280;68368;51.728;5.248;2023-09-12T08:18:42;101317.69;;;27.98;66.20
78892;BME280;68368;51.728;5.248;2023-09-12T08:20:45;101320.45;;;28.12;65.13
78892;BME280;68368;51.728;5.248;2023-09-12T08:22:49;101320.54;;;28.23;63.38
78892;BME280;68368;51.728;5.248;2023-09-12T08:24:51;101321.79;;;28.37;63.03
78892;BME280;68368;51.728;5.248;2023-09-12T08:26:53;101324.88;;;28.38;61.35
78892;BME280;68368;51.728;5.248;2023-09-12T08:28:55;101323.69;;;28.32;61.23
78892;BME280;68368;51.728;5.248;2023-09-12T08:30:57;101321.33;;;28.34;61.22
78892;BME280;68368;51.728;5.248;2023-09-12T08:32:59;101320.53;;;28.49;61.20
78892;BME280;68368;51.728;5.248;2023-09-12T08:35:04;101323.00;;;28.78;60.80
78892;BME280;68368;51.728;5.248;2023-09-12T08:37:06;101327.83;;;29.07;59.91
78892;BME280;68368;51.728;5.248;2023-09-12T08:39:12;101331.20;;;29.18;58.87
78892;BME280;68368;51.728;5.248;2023-09-12T08:41:17;101338.16;;;29.27;58.39
78892;BME280;68368;51.728;5.248;2023-09-12T08:43:20;101334.77;;;29.30;57.48
78892;BME280;68368;51.728;5.248;2023-09-12T08:45:22;101337.35;;;29.41;56.90
78892;BME280;68368;51.728;5.248;2023-09-12T08:47:25;101334.50;;;29.47;56.47
78892;BME280;68368;51.728;5.248;2023-09-12T08:49:28;101334.05;;;29.41;56.52
78892;BME280;68368;51.728;5.248;2023-09-12T08:51:31;101335.80;;;29.47;56.32
78892;BME280;68368;51.728;5.248;2023-09-12T08:53:32;101335.85;;;29.50;55.90
78892;BME280;68368;51.728;5.248;2023-09-12T08:55:35;101338.22;;;29.58;55.21
78892;BME280;68368;51.728;5.248;2023-09-12T08:57:38;101336.54;;;29.67;54.71
78892;BME280;68368;51.728;5.248;2023-09-12T08:59:43;101342.05;;;29.82;54.69
78892;BME280;68368;51.728;5.248;2023-09-12T09:01:46;101350.27;;;30.06;54.25
78892;BME280;68368;51.728;5.248;2023-09-12T09:03:49;101349.94;;;30.28;53.30
78892;BME280;68368;51.728;5.248;2023-09-12T09:05:54;101353.45;;;30.43;52.67
78892;BME280;68368;51.728;5.248;2023-09-12T09:07:57;101357.98;;;30.50;51.43
78892;BME280;68368;51.728;5.248;2023-09-12T09:10:02;101357.88;;;30.47;50.86
78892;BME280;68368;51.728;5.248;2023-09-12T09:12:08;101354.82;;;30.31;51.47
78892;BME280;68368;51.728;5.248;2023-09-12T09:14:09;101348.33;;;30.12;51.95
78892;BME280;68368;51.728;5.248;2023-09-12T09:16:12;101347.54;;;29.89;52.43
78892;BME280;68368;51.728;5.248;2023-09-12T09:18:17;101342.27;;;29.66;52.76
78892;BME280;68368;51.728;5.248;2023-09-12T09:20:24;101341.98;;;29.63;53.02
78892;BME280;68368;51.728;5.248;2023-09-12T09:22:27;101336.42;;;29.66;53.03
78892;BME280;68368;51.728;5.248;2023-09-12T09:24:28;101338.80;;;29.57;52.79
78892;BME280;68368;51.728;5.248;2023-09-12T09:26:42;101342.34;;;29.45;53.06
78892;BME280;68368;51.728;5.248;2023-09-12T09:28:44;101347.02;;;29.31;52.29
78892;BME280;68368;51.728;5.248;2023-09-12T09:30:46;101340.66;;;29.14;52.86
78892;BME280;68368;51.728;5.248;2023-09-12T09:32:54;101340.09;;;29.12;53.48
78892;BME280;68368;51.728;5.248;2023-09-12T09:34:57;101343.39;;;29.10;53.42
78892;BME280;68368;51.728;5.248;2023-09-12T09:37:03;101341.89;;;29.10;53.51
78892;BME280;68368;51.728;5.248;2023-09-12T09:39:08;101340.58;;;29.18;52.49
78892;BME280;68368;51.728;5.248;2023-09-12T09:41:11;101341.23;;;29.20;52.05
78892;BME280;68368;51.728;5.248;2023-09-12T09:43:13;101334.92;;;29.28;51.53
78892;BME280;68368;51.728;5.248;2023-09-12T09:45:20;101327.41;;;29.40;51.47
78892;BME280;68368;51.728;5.248;2023-09-12T09:47:22;101316.97;;;29.60;51.26
78892;BME280;68368;51.728;5.248;2023-09-12T09:49:25;101314.94;;;29.87;50.85
78892;BME280;68368;51.728;5.248;2023-09-12T09:51:27;101301.74;;;30.11;50.26
78892;BME280;68368;51.728;5.248;2023-09-12T09:53:31;101302.30;;;30.39;49.41
78892;BME280;68368;51.728;5.248;2023-09-12T09:55:34;101301.44;;;30.66;49.18
78892;BME280;68368;51.728;5.248;2023-09-12T09:57:38;101295.33;;;30.98;47.58
78892;BME280;68368;51.728;5.248;2023-09-12T09:59:39;101295.84;;;31.33;46.34
78892;BME280;68368;51.728;5.248;2023-09-12T10:01:42;101295.46;;;31.53;46.31
78892;BME280;68368;51.728;5.248;2023-09-12T10:03:46;101300.12;;;31.74;45.34
78892;BME280;68368;51.728;5.248;2023-09-12T10:05:51;101303.06;;;31.89;45.33
78892;BME280;68368;51.728;5.248;2023-09-12T10:07:56;101306.25;;;32.00;44.37
78892;BME280;68368;51.728;5.248;2023-09-12T10:10:02;101308.39;;;31.98;44.45
78892;BME280;68368;51.728;5.248;2023-09-12T10:12:05;101310.21;;;31.95;44.27
78892;BME280;68368;51.728;5.248;2023-09-12T10:14:08;101308.39;;;31.93;44.52
78892;BME280;68368;51.728;5.248;2023-09-12T10:16:10;101310.40;;;31.81;44.01
78892;BME280;68368;51.728;5.248;2023-09-12T10:18:18;101312.12;;;31.70;44.78
78892;BME280;68368;51.728;5.248;2023-09-12T10:20:27;101307.59;;;31.57;45.28
78892;BME280;68368;51.728;5.248;2023-09-12T10:22:34;101307.55;;;31.52;44.87
78892;BME280;68368;51.728;5.248;2023-09-12T10:24:40;101306.31;;;31.41;44.80
78892;BME280;68368;51.728;5.248;2023-09-12T10:26:44;101310.52;;;31.31;44.71
78892;BME280;68368;51.728;5.248;2023-09-12T10:28:47;101314.08;;;31.28;45.18
78892;BME280;68368;51.728;5.248;2023-09-12T10:30:50;101317.60;;;31.23;45.07
78892;BME280;68368;51.728;5.248;2023-09-12T10:32:53;101316.29;;;31.22;44.72
78892;BME280;68368;51.728;5.248;2023-09-12T10:35:06;101318.88;;;31.22;44.99
78892;BME280;68368;51.728;5.248;2023-09-12T10:37:09;101322.14;;;31.26;44.26
78892;BME280;68368;51.728;5.248;2023-09-12T10:39:13;101319.36;;;31.30;44.97
78892;BME280;68368;51.728;5.248;2023-09-12T10:41:16;101317.78;;;31.38;44.49
78892;BME280;68368;51.728;5.248;2023-09-12T10:43:19;101314.16;;;31.39;44.76